Time;durP1;ratioP1;P1;durP2;ratioP2;P2;SDS_P1;SDS_P2;PMS_P1;PMS_P2;Temp;Humidity;BMP_temperature;BMP_pressure;BME280_temperature;BME280_humidity;BME280_pressure;Samples;Min_cycle;Max_cycle;Signal;HPM_P1;HPM_P2
2022/01/12 00:02:01;;;;;;;0.50;0.50;;;-2.60;99.90;;;;;;5279052;28;20384;-73
2022/01/12 00:04:37;;;;;;;0.57;0.57;;;-2.70;99.90;;;;;;5261500;28;20197;-72
2022/01/12 00:07:08;;;;;;;0.60;0.60;;;-2.70;99.90;;;;;;5265851;28;20024;-72
2022/01/12 00:09:41;;;;;;;0.60;0.60;;;-2.80;99.90;;;;;;5278649;28;20080;-72
2022/01/12 00:12:18;;;;;;;0.70;0.70;;;-2.80;99.90;;;;;;5264438;28;20027;-72
2022/01/12 00:14:48;;;;;;;0.63;0.63;;;-2.80;99.90;;;;;;5270480;28;20329;-72
2022/01/12 00:17:22;;;;;;;0.93;0.93;;;-2.80;99.90;;;;;;5269276;28;20039;-72
2022/01/12 00:19:55;;;;;;;0.70;0.70;;;-2.80;99.90;;;;;;5284821;28;20027;-73
2022/01/12 00:22:28;;;;;;;0.50;0.50;;;-2.70;99.90;;;;;;5292205;27;20049;-72
2022/01/12 00:25:12;;;;;;;0.53;0.53;;;-2.70;99.90;;;;;;5293899;27;20019;-72
2022/01/12 00:33:25;;;;;;;1.00;1.00;;;-2.60;99.90;;;;;;5278966;28;20652;-72
2022/01/12 00:36:02;;;;;;;0.50;0.50;;;-2.70;99.90;;;;;;5275513;28;20099;-72
2022/01/12 00:38:33;;;;;;;1.73;1.47;;;-2.70;99.90;;;;;;5255903;28;20268;-73
2022/01/12 00:41:04;;;;;;;0.80;0.73;;;-2.60;99.90;;;;;;5263001;28;20111;-72
2022/01/12 00:43:45;;;;;;;0.50;0.50;;;-2.60;99.90;;;;;;5280929;28;20031;-71
2022/01/12 00:46:20;;;;;;;0.60;0.60;;;-2.70;99.90;;;;;;5262869;28;20295;-71
2022/01/12 00:48:56;;;;;;;0.50;0.50;;;-2.70;99.90;;;;;;5280445;28;20035;-71
2022/01/12 00:51:32;;;;;;;0.50;0.50;;;-2.80;99.90;;;;;;5279523;28;20614;-71
2022/01/12 00:54:03;;;;;;;0.40;0.40;;;-2.80;99.90;;;;;;5283215;28;20042;-71
2022/01/12 00:56:38;;;;;;;0.50;0.50;;;-2.80;99.90;;;;;;5264643;28;20039;-71
2022/01/12 00:59:14;;;;;;;1.27;1.27;;;-2.80;99.90;;;;;;5254047;28;20039;-71
2022/01/12 01:01:48;;;;;;;0.87;0.87;;;-2.80;99.90;;;;;;5264500;28;20024;-71
2022/01/12 01:04:19;;;;;;;0.60;0.60;;;-2.80;99.90;;;;;;5264287;28;20040;-71
2022/01/12 01:06:54;;;;;;;0.60;0.60;;;-2.90;99.90;;;;;;5281071;28;20138;-71
2022/01/12 01:09:27;;;;;;;0.77;0.77;;;-3.00;99.90;;;;;;5280184;28;20031;-71
2022/01/12 01:11:58;;;;;;;2.40;2.22;;;-2.90;99.90;;;;;;5263655;28;20043;-71
2022/01/12 01:15:19;;;;;;;0.90;0.90;;;-2.90;99.90;;;;;;5280509;28;20038;-71
2022/01/12 01:26:00;;;;;;;1.10;1.10;;;-3.00;99.90;;;;;;5280359;28;20330;-71
2022/01/12 01:28:31;;;;;;;1.40;1.40;;;-2.90;99.90;;;;;;5281752;28;20032;-71
2022/01/12 01:31:05;;;;;;;0.63;0.63;;;-3.00;99.90;;;;;;5264698;28;20043;-71
2022/01/12 01:33:38;;;;;;;0.85;0.85;;;-2.90;99.90;;;;;;5264618;28;20090;-71
2022/01/12 01:36:09;;;;;;;0.52;0.52;;;-2.80;99.90;;;;;;5279213;28;20023;-71
2022/01/12 01:38:43;;;;;;;0.50;0.50;;;-2.70;99.90;;;;;;5280317;28;20033;-71
2022/01/12 01:41:19;;;;;;;0.95;0.95;;;-2.70;99.90;;;;;;5269252;28;20118;-72
2022/01/12 01:55:16;;;;;;;1.17;1.17;;;-2.90;99.90;;;;;;5275566;28;20027;-71
2022/01/12 01:57:50;;;;;;;0.60;0.60;;;-3.00;99.90;;;;;;5258924;28;20028;-71
2022/01/12 02:00:31;;;;;;;0.63;0.63;;;-3.00;99.90;;;;;;5258438;28;20162;-71
2022/01/12 02:03:06;;;;;;;1.00;1.00;;;-3.10;99.90;;;;;;5257925;28;20358;-71
2022/01/12 02:05:42;;;;;;;1.13;1.13;;;-3.10;99.90;;;;;;5233537;28;20055;-71
2022/01/12 02:08:15;;;;;;;0.50;0.50;;;-3.10;99.90;;;;;;5256517;28;20035;-72
2022/01/12 02:10:49;;;;;;;0.45;0.45;;;-3.10;99.90;;;;;;5241217;28;20032;-72
2022/01/12 02:13:23;;;;;;;0.50;0.50;;;-3.10;99.90;;;;;;5258081;28;20526;-71
2022/01/12 02:16:02;;;;;;;0.60;0.60;;;-3.10;99.90;;;;;;5257918;28;20047;-71
2022/01/12 02:19:08;;;;;;;0.50;0.50;;;-3.10;99.90;;;;;;5257905;28;20032;-71
2022/01/12 02:36:26;;;;;;;0.47;0.47;;;-3.20;99.90;;;;;;5259834;28;20067;-71
2022/01/12 02:41:54;;;;;;;1.93;1.83;;;-3.30;99.90;;;;;;5261698;28;20035;-71
2022/01/12 02:50:40;;;;;;;0.40;0.40;;;-3.50;99.90;;;;;;5262273;28;20028;-71
2022/01/12 02:56:17;;;;;;;1.27;1.27;;;-3.70;99.90;;;;;;5261514;28;20020;-71
2022/01/12 02:58:53;;;;;;;0.70;0.70;;;-3.70;99.90;;;;;;5261440;28;20081;-70
2022/01/12 03:01:53;;;;;;;0.83;0.83;;;-3.70;99.90;;;;;;5246015;28;20031;-71
2022/01/12 03:04:23;;;;;;;0.53;0.53;;;-3.80;99.90;;;;;;5235892;28;20040;-71
2022/01/12 03:07:05;;;;;;;1.20;1.20;;;-3.80;99.90;;;;;;5261149;28;20040;-71
2022/01/12 03:09:44;;;;;;;0.40;0.40;;;-3.80;99.90;;;;;;5261920;28;20048;-71
2022/01/12 03:12:20;;;;;;;0.50;0.50;;;-3.80;99.90;;;;;;5263656;28;20024;-71
2022/01/12 03:14:53;;;;;;;1.10;1.10;;;-3.90;99.90;;;;;;5262859;28;20042;-71
2022/01/12 03:17:27;;;;;;;0.55;0.55;;;-3.90;99.90;;;;;;5261252;28;20066;-71
2022/01/12 03:19:58;;;;;;;0.63;0.63;;;-3.90;99.90;;;;;;5256007;28;20126;-71
2022/01/12 03:22:32;;;;;;;1.37;1.37;;;-3.90;99.90;;;;;;5281058;28;20035;-71
2022/01/12 03:25:06;;;;;;;3.17;2.75;;;-3.90;99.90;;;;;;5262967;28;20059;-72
2022/01/12 03:27:39;;;;;;;0.60;0.60;;;-3.90;99.90;;;;;;5262556;28;20036;-71
2022/01/12 03:30:15;;;;;;;0.67;0.67;;;-3.90;99.90;;;;;;5260027;28;20820;-71
2022/01/12 03:33:06;;;;;;;0.50;0.50;;;-3.90;99.90;;;;;;5261977;28;20063;-71
2022/01/12 03:35:51;;;;;;;0.50;0.50;;;-3.90;99.90;;;;;;5244843;28;20485;-71
2022/01/12 03:38:24;;;;;;;0.80;0.80;;;-3.90;99.90;;;;;;5261983;28;20552;-71
2022/01/12 03:40:58;;;;;;;0.52;0.52;;;-3.90;99.90;;;;;;5262988;28;20043;-71
2022/01/12 03:43:29;;;;;;;1.33;1.33;;;-4.00;99.90;;;;;;5258753;28;20036;-71
2022/01/12 03:46:05;;;;;;;0.70;0.70;;;-4.00;99.90;;;;;;5267368;28;20031;-70
2022/01/12 03:48:46;;;;;;;0.40;0.40;;;-4.10;99.90;;;;;;5255576;27;20051;-71
2022/01/12 03:51:21;;;;;;;2.10;2.00;;;-4.10;99.90;;;;;;5284204;27;20035;-71
2022/01/12 03:53:57;;;;;;;0.60;0.60;;;-4.10;99.90;;;;;;5281610;28;20053;-71
2022/01/12 03:56:29;;;;;;;0.50;0.50;;;-4.10;99.90;;;;;;5264420;28;20043;-71
2022/01/12 03:59:05;;;;;;;0.55;0.55;;;-4.10;99.90;;;;;;5265159;28;20050;-71
2022/01/12 04:01:39;;;;;;;0.50;0.50;;;-4.10;99.90;;;;;;5282086;27;20069;-71
2022/01/12 04:04:23;;;;;;;0.60;0.60;;;-4.10;99.90;;;;;;5281669;28;20027;-69
2022/01/12 04:09:53;;;;;;;0.40;0.40;;;-4.20;99.90;;;;;;5282002;28;20036;-71
2022/01/12 04:12:28;;;;;;;0.40;0.40;;;-4.20;99.90;;;;;;5283265;28;20101;-71
2022/01/12 04:14:59;;;;;;;0.50;0.50;;;-4.30;99.90;;;;;;5265643;28;20107;-70
2022/01/12 04:17:32;;;;;;;0.53;0.53;;;-4.40;99.90;;;;;;5265024;28;20485;-71
2022/01/12 04:20:05;;;;;;;0.60;0.60;;;-4.40;99.90;;;;;;5263660;28;20051;-71
2022/01/12 04:25:28;;;;;;;1.17;1.17;;;-4.30;99.90;;;;;;5267622;28;20043;-71
2022/01/12 04:28:04;;;;;;;0.47;0.47;;;-4.30;99.90;;;;;;5288849;27;20035;-71
2022/01/12 04:30:36;;;;;;;1.07;0.97;;;-4.40;99.90;;;;;;5264544;28;20032;-71
2022/01/12 04:33:11;;;;;;;0.40;0.40;;;-4.40;99.90;;;;;;5263578;28;20034;-71
2022/01/12 04:35:51;;;;;;;0.40;0.40;;;-4.50;99.90;;;;;;5263593;28;20039;-70
2022/01/12 04:38:29;;;;;;;0.60;0.60;;;-4.60;99.90;;;;;;5265098;28;20023;-71
2022/01/12 04:41:03;;;;;;;0.60;0.60;;;-4.60;99.90;;;;;;5263719;28;20130;-70
2022/01/12 04:43:36;;;;;;;;;;;-4.70;99.90;;;;;;5246923;28;20473;-71
2022/01/12 04:46:24;;;;;;;0.50;0.50;;;-4.70;99.90;;;;;;5264375;28;19912;-71
2022/01/12 04:51:39;;;;;;;0.50;0.50;;;-4.80;99.90;;;;;;5279766;28;20039;-71
2022/01/12 04:54:13;;;;;;;0.50;0.50;;;-4.80;99.90;;;;;;5281508;28;20031;-71
2022/01/12 04:56:49;;;;;;;0.60;0.60;;;-4.80;99.90;;;;;;5264098;28;20107;-71
2022/01/12 04:59:22;;;;;;;0.40;0.40;;;-4.90;99.90;;;;;;5248809;28;20499;-72
2022/01/12 05:02:09;;;;;;;0.75;0.75;;;-4.90;99.90;;;;;;5277365;28;20055;-71
2022/01/12 05:07:44;;;;;;;0.90;0.90;;;-5.00;99.90;;;;;;5267009;27;20227;-71
2022/01/12 05:13:03;;;;;;;0.80;0.80;;;-5.00;99.90;;;;;;5253458;28;20318;-71
2022/01/12 05:15:36;;;;;;;0.40;0.40;;;-4.90;99.90;;;;;;5272214;28;20024;-71
2022/01/12 05:18:10;;;;;;;0.40;0.40;;;-4.90;99.90;;;;;;5261410;28;20024;-70
2022/01/12 05:20:49;;;;;;;0.55;0.55;;;-4.80;99.90;;;;;;5294534;28;20036;-71
2022/01/12 05:23:20;;;;;;;0.60;0.60;;;-4.80;99.90;;;;;;5262399;28;20271;-71
2022/01/12 05:25:52;;;;;;;0.70;0.70;;;-4.70;99.90;;;;;;5269306;28;20039;-72
2022/01/12 05:28:26;;;;;;;0.87;0.87;;;-4.70;99.90;;;;;;5257481;28;20024;-70
2022/01/12 05:31:04;;;;;;;0.63;0.63;;;-4.70;99.90;;;;;;5262266;28;20036;-71
2022/01/12 05:33:40;;;;;;;0.50;0.50;;;-4.70;99.90;;;;;;5252471;28;20038;-72
2022/01/12 05:36:16;;;;;;;1.20;1.20;;;-4.70;99.90;;;;;;5295959;28;20453;-71
2022/01/12 05:38:53;;;;;;;0.50;0.50;;;-4.70;99.90;;;;;;5263953;28;20038;-71
2022/01/12 05:41:32;;;;;;;0.53;0.53;;;-4.60;99.90;;;;;;5261395;28;20095;-71
2022/01/12 05:44:06;;;;;;;0.50;0.50;;;-4.60;99.90;;;;;;5259447;28;20554;-71
2022/01/12 05:46:44;;;;;;;2.97;2.53;;;-4.60;99.90;;;;;;5279419;28;20034;-71
2022/01/12 05:49:36;;;;;;;0.60;0.60;;;-4.50;99.90;;;;;;5262796;28;20024;-71
2022/01/12 05:52:11;;;;;;;0.60;0.60;;;-4.50;99.90;;;;;;5277207;28;20099;-71
2022/01/12 05:54:44;;;;;;;2.50;2.33;;;-4.40;99.90;;;;;;5247690;28;20386;-71
2022/01/12 05:57:17;;;;;;;1.03;1.03;;;-4.40;99.90;;;;;;5259758;28;20036;-71
2022/01/12 05:59:48;;;;;;;0.80;0.80;;;-4.40;99.90;;;;;;5269161;28;20067;-71
2022/01/12 06:02:22;;;;;;;0.83;0.83;;;-4.40;99.90;;;;;;5259489;28;20036;-71
2022/01/12 06:05:00;;;;;;;0.60;0.60;;;-4.40;99.90;;;;;;5288853;28;20134;-71
2022/01/12 06:07:33;;;;;;;0.57;0.57;;;-4.30;99.90;;;;;;5255591;28;20365;-71
2022/01/12 06:10:12;;;;;;;1.55;1.38;;;-4.40;99.90;;;;;;5293917;27;20529;-72
2022/01/12 06:12:44;;;;;;;0.60;0.60;;;-4.30;99.90;;;;;;5233610;28;20527;-72
2022/01/12 06:15:18;;;;;;;1.00;1.00;;;-4.30;99.90;;;;;;5269137;28;20028;-72
2022/01/12 06:17:51;;;;;;;0.40;0.40;;;-4.30;99.90;;;;;;5267037;28;20262;-72
2022/01/12 06:20:25;;;;;;;4.13;3.60;;;-4.30;99.90;;;;;;5267227;28;20031;-71
2022/01/12 06:22:58;;;;;;;;;;;-4.30;99.90;;;;;;5266618;28;20298;-72
2022/01/12 06:25:43;;;;;;;0.60;0.60;;;-4.40;99.90;;;;;;5240623;28;19911;-72
2022/01/12 06:31:10;;;;;;;0.87;0.87;;;-4.40;99.90;;;;;;5265789;28;20051;-72
2022/01/12 06:33:47;;;;;;;0.53;0.53;;;-4.40;99.90;;;;;;5265905;28;20027;-71
2022/01/12 06:36:23;;;;;;;0.97;0.97;;;-4.40;99.90;;;;;;5266254;28;20506;-72
2022/01/12 06:38:55;;;;;;;0.60;0.60;;;-4.40;99.90;;;;;;5264954;28;20024;-72
2022/01/12 06:41:28;;;;;;;1.13;1.13;;;-4.30;99.90;;;;;;5262844;28;20040;-72
2022/01/12 06:44:05;;;;;;;1.00;1.00;;;-4.30;99.90;;;;;;5281740;28;20099;-71
2022/01/12 06:46:36;;;;;;;0.60;0.60;;;-4.30;99.90;;;;;;5278677;28;20032;-72
2022/01/12 06:49:11;;;;;;;0.93;0.93;;;-4.30;99.90;;;;;;5247626;28;20434;-72
2022/01/12 06:51:51;;;;;;;0.60;0.60;;;-4.20;99.90;;;;;;5265162;28;20036;-72
2022/01/12 06:54:30;;;;;;;0.60;0.60;;;-4.30;99.90;;;;;;5249885;28;20129;-72
2022/01/12 06:57:09;;;;;;;0.73;0.73;;;-4.20;99.90;;;;;;5267769;28;20369;-72
2022/01/12 07:04:00;;;;;;;0.60;0.60;;;-4.20;99.90;;;;;;5180359;28;20086;-72
2022/01/12 07:06:31;;;;;;;0.50;0.50;;;-4.20;99.90;;;;;;5167545;28;20042;-72
2022/01/12 07:09:05;;;;;;;1.27;1.27;;;-4.10;99.90;;;;;;5178537;28;20048;-72
2022/01/12 07:11:39;;;;;;;0.75;0.75;;;-4.10;99.90;;;;;;5163805;28;20500;-72
2022/01/12 07:14:12;;;;;;;0.60;0.60;;;-4.10;99.90;;;;;;5179727;28;20037;-72
2022/01/12 07:16:46;;;;;;;0.50;0.50;;;-4.10;99.90;;;;;;5179986;28;20634;-72
2022/01/12 07:19:16;;;;;;;0.45;0.45;;;-4.00;99.90;;;;;;5161373;28;20040;-72
2022/01/12 07:21:49;;;;;;;0.63;0.63;;;-4.00;99.90;;;;;;5179519;28;20073;-72
2022/01/12 07:24:21;;;;;;;0.90;0.90;;;-4.00;99.90;;;;;;5182217;28;20335;-72
2022/01/12 07:26:53;;;;;;;0.80;0.80;;;-4.00;99.90;;;;;;5151641;28;20049;-72
2022/01/12 07:29:24;;;;;;;0.63;0.63;;;-4.00;99.90;;;;;;5145674;28;20030;-72
2022/01/12 07:31:55;;;;;;;0.83;0.83;;;-4.00;99.90;;;;;;5161823;28;20030;-72
2022/01/12 07:34:25;;;;;;;0.60;0.60;;;-3.90;99.90;;;;;;5251123;27;20612;-72
2022/01/12 07:37:01;;;;;;;1.33;1.27;;;-4.00;99.90;;;;;;5286844;27;20088;-72
2022/01/12 07:39:35;;;;;;;1.10;1.03;;;-3.90;99.90;;;;;;5280370;28;20028;-72
2022/01/12 07:42:08;;;;;;;1.20;1.20;;;-3.90;99.90;;;;;;5284731;28;20312;-72
2022/01/12 07:44:41;;;;;;;1.10;1.10;;;-3.90;99.90;;;;;;5264150;28;20373;-71
2022/01/12 07:47:18;;;;;;;0.77;0.77;;;-3.80;99.90;;;;;;5266369;28;20050;-71
2022/01/12 07:49:54;;;;;;;0.60;0.60;;;-3.80;99.90;;;;;;5268116;28;20032;-71
2022/01/12 07:52:30;;;;;;;0.77;0.77;;;-3.70;99.90;;;;;;5269581;28;20027;-72
2022/01/12 07:55:06;;;;;;;0.40;0.40;;;-3.70;99.90;;;;;;5270444;28;20426;-71
2022/01/12 07:57:38;;;;;;;0.80;0.80;;;-3.70;99.90;;;;;;5267114;28;20225;-71
2022/01/12 08:00:12;;;;;;;0.60;0.60;;;-3.70;99.90;;;;;;5267266;28;20036;-71
2022/01/12 08:02:49;;;;;;;0.68;0.68;;;-3.70;99.90;;;;;;5251065;28;20038;-71
2022/01/12 08:05:23;;;;;;;0.50;0.50;;;-3.70;99.90;;;;;;5255712;28;20118;-71
2022/01/12 08:07:58;;;;;;;0.45;0.45;;;-3.60;99.90;;;;;;5263174;28;21180;-71
2022/01/12 08:10:41;;;;;;;0.50;0.50;;;-3.50;99.90;;;;;;5254887;28;20466;-71
2022/01/12 08:13:17;;;;;;;0.60;0.60;;;-3.50;99.90;;;;;;5266174;28;20043;-72
2022/01/12 08:15:50;;;;;;;0.43;0.43;;;-3.50;99.90;;;;;;5265103;28;20051;-71
2022/01/12 08:18:21;;;;;;;0.57;0.57;;;-3.40;99.90;;;;;;5264845;28;20429;-71
2022/01/12 08:20:54;;;;;;;6.80;5.70;;;-3.40;99.90;;;;;;5284281;27;20268;-71
2022/01/12 08:23:25;;;;;;;0.47;0.47;;;-3.40;99.90;;;;;;5278117;28;20392;-71
2022/01/12 08:26:02;;;;;;;0.63;0.63;;;-3.50;99.90;;;;;;5274965;28;20028;-71
2022/01/12 08:28:34;;;;;;;0.73;0.73;;;-3.50;99.90;;;;;;5280647;28;20424;-72
2022/01/12 08:31:07;;;;;;;0.57;0.57;;;-3.50;99.90;;;;;;5282339;27;20047;-72
2022/01/12 08:33:40;;;;;;;0.60;0.60;;;-3.50;99.90;;;;;;5283382;27;20037;-72
2022/01/12 08:36:12;;;;;;;0.87;0.87;;;-3.30;99.90;;;;;;5281639;28;20865;-71
2022/01/12 08:38:44;;;;;;;0.70;0.70;;;-3.30;99.90;;;;;;5283732;28;20062;-72
2022/01/12 08:41:17;;;;;;;0.60;0.60;;;-3.30;99.90;;;;;;5264528;28;20054;-72
2022/01/12 08:43:48;;;;;;;0.40;0.40;;;-3.10;99.90;;;;;;5277631;28;20120;-72
2022/01/12 08:46:21;;;;;;;0.80;0.80;;;-3.20;99.90;;;;;;5259840;28;20486;-71
2022/01/12 08:48:52;;;;;;;0.65;0.65;;;-3.20;99.90;;;;;;5280420;28;20023;-72
2022/01/12 08:51:26;;;;;;;0.50;0.50;;;-3.20;99.90;;;;;;5282420;28;20039;-71
2022/01/12 08:54:00;;;;;;;1.13;1.13;;;-3.10;99.90;;;;;;5263711;28;20277;-72
2022/01/12 08:56:37;;;;;;;0.90;0.90;;;-3.20;99.90;;;;;;5246750;28;20097;-71
2022/01/12 08:59:08;;;;;;;4.40;1.40;;;-3.10;99.90;;;;;;5256901;28;20113;-71
2022/01/12 09:01:42;;;;;;;0.63;0.63;;;-3.10;99.90;;;;;;5265373;28;20571;-72
2022/01/12 09:04:13;;;;;;;1.13;1.13;;;-2.90;99.90;;;;;;5277436;28;20045;-71
2022/01/12 09:06:46;;;;;;;0.60;0.60;;;-2.80;99.90;;;;;;5248696;28;20062;-71
2022/01/12 09:09:25;;;;;;;0.60;0.60;;;-2.90;99.90;;;;;;5267723;28;20028;-72
2022/01/12 09:11:59;;;;;;;2.27;2.13;;;-3.00;99.90;;;;;;5282510;28;20031;-71
2022/01/12 09:14:31;;;;;;;0.60;0.60;;;-2.90;99.90;;;;;;5261668;28;20571;-72
2022/01/12 09:17:06;;;;;;;0.50;0.50;;;-2.80;99.90;;;;;;5261473;28;20039;-72
2022/01/12 09:19:39;;;;;;;0.60;0.60;;;-2.90;99.90;;;;;;5262593;28;20027;-71
2022/01/12 09:22:10;;;;;;;0.53;0.53;;;-2.90;99.90;;;;;;5281067;28;20035;-72
2022/01/12 09:24:42;;;;;;;2.40;2.30;;;-2.80;99.90;;;;;;5240045;28;20075;-72
2022/01/12 09:27:20;;;;;;;0.60;0.60;;;-2.80;99.90;;;;;;5258364;28;20422;-71
2022/01/12 09:29:53;;;;;;;0.60;0.60;;;-2.70;99.90;;;;;;5263053;28;20035;-71
2022/01/12 09:32:26;;;;;;;0.43;0.43;;;-2.80;99.90;;;;;;5279280;28;20051;-72
2022/01/12 09:35:00;;;;;;;0.43;0.43;;;-2.80;99.90;;;;;;5282432;28;20317;-72
2022/01/12 09:37:37;;;;;;;0.73;0.73;;;-2.80;99.90;;;;;;5263088;28;20073;-72
2022/01/12 09:40:12;;;;;;;1.20;1.03;;;-2.80;99.90;;;;;;5262875;28;20059;-72
2022/01/12 09:42:49;;;;;;;3.40;1.00;;;-2.90;99.90;;;;;;5267422;28;20043;-71
2022/01/12 09:45:28;;;;;;;0.50;0.50;;;-2.80;99.90;;;;;;5268066;27;20053;-71
2022/01/12 09:48:04;;;;;;;0.87;0.87;;;-2.70;99.90;;;;;;5264340;28;20036;-72
2022/01/12 09:50:35;;;;;;;1.10;1.00;;;-2.80;99.90;;;;;;5263031;28;20048;-72
2022/01/12 09:53:14;;;;;;;1.03;1.03;;;-2.70;99.90;;;;;;5263431;28;20089;-72
2022/01/12 09:55:46;;;;;;;1.83;1.73;;;-2.50;99.90;;;;;;5263471;28;20049;-72
2022/01/12 09:58:18;;;;;;;0.70;0.70;;;-2.50;99.90;;;;;;5264013;28;20020;-72
2022/01/12 10:01:00;;;;;;;2.03;1.93;;;-2.30;99.90;;;;;;5275467;28;20067;-72
2022/01/12 10:03:32;;;;;;;0.40;0.40;;;-2.10;99.90;;;;;;5264966;28;20024;-73
2022/01/12 10:06:17;;;;;;;0.43;0.43;;;-2.00;99.90;;;;;;5254444;28;20056;-74
2022/01/12 10:08:56;;;;;;;0.50;0.50;;;-1.80;99.90;;;;;;5248550;28;20077;-73
2022/01/12 10:11:29;;;;;;;0.40;0.40;;;-1.70;99.90;;;;;;5263051;28;20044;-74
2022/01/12 10:14:06;;;;;;;0.95;0.95;;;-1.80;99.90;;;;;;5263751;28;20035;-74
2022/01/12 10:16:37;;;;;;;0.50;0.50;;;-2.00;99.90;;;;;;5258813;28;20048;-74
2022/01/12 10:19:08;;;;;;;0.60;0.60;;;-2.00;99.90;;;;;;5264861;28;20266;-75
2022/01/12 10:21:40;;;;;;;0.70;0.70;;;-1.80;99.90;;;;;;5264725;28;20039;-75
2022/01/12 10:24:20;;;;;;;1.00;1.00;;;-1.90;99.90;;;;;;5269684;28;20054;-75
2022/01/12 10:26:51;;;;;;;1.60;1.50;;;-1.90;99.90;;;;;;5264627;28;20107;-75
2022/01/12 10:29:31;;;;;;;0.50;0.50;;;-1.90;99.90;;;;;;5267259;28;20220;-76
2022/01/12 10:32:08;;;;;;;0.70;0.70;;;-1.80;99.90;;;;;;5261555;28;20104;-76
2022/01/12 10:34:52;;;;;;;0.40;0.40;;;-1.80;99.90;;;;;;5264273;28;20036;-75
2022/01/12 10:37:26;;;;;;;0.85;0.85;;;-1.70;99.90;;;;;;5265881;28;20205;-75
2022/01/12 10:40:01;;;;;;;0.50;0.50;;;-1.20;99.90;;;;;;5279480;28;20028;-75
2022/01/12 10:42:36;;;;;;;0.67;0.67;;;-1.20;99.90;;;;;;5261883;28;20273;-74
2022/01/12 10:45:09;;;;;;;0.77;0.77;;;-1.30;99.90;;;;;;5261718;28;20401;-74
2022/01/12 10:47:40;;;;;;;1.17;1.17;;;-1.50;99.90;;;;;;5262448;28;20262;-74
2022/01/12 10:50:11;;;;;;;2.10;0.80;;;-1.30;99.90;;;;;;5262571;28;20292;-74
2022/01/12 10:52:50;;;;;;;0.60;0.60;;;-1.50;99.90;;;;;;5278785;28;20032;-73
2022/01/12 10:55:24;;;;;;;2.40;2.20;;;-1.80;99.90;;;;;;5257438;28;20028;-73
2022/01/12 10:57:59;;;;;;;0.63;0.63;;;-1.60;99.90;;;;;;5264507;28;20027;-73
2022/01/12 11:00:34;;;;;;;1.23;1.23;;;-1.60;99.90;;;;;;5263251;28;20043;-75
2022/01/12 11:03:07;;;;;;;0.80;0.80;;;-1.20;99.90;;;;;;5244435;28;20051;-73
2022/01/12 11:05:40;;;;;;;0.70;0.70;;;-1.20;99.90;;;;;;5239596;28;20059;-73
2022/01/12 11:08:16;;;;;;;0.50;0.50;;;-0.90;99.90;;;;;;5262928;28;20028;-73
2022/01/12 11:10:51;;;;;;;0.80;0.80;;;-0.90;99.90;;;;;;5274805;28;20099;-72
2022/01/12 11:13:24;;;;;;;1.60;1.53;;;-0.70;99.90;;;;;;5256894;28;20024;-73
2022/01/12 11:15:56;;;;;;;0.53;0.53;;;-0.50;99.90;;;;;;5262391;28;20038;-75
2022/01/12 11:18:38;;;;;;;0.40;0.40;;;-0.60;99.90;;;;;;5261397;28;20035;-74
2022/01/12 11:21:35;;;;;;;0.63;0.63;;;-0.80;99.90;;;;;;5260726;28;20464;-73
2022/01/12 11:24:06;;;;;;;1.47;1.47;;;-0.50;99.90;;;;;;5260906;28;20036;-75
2022/01/12 11:26:53;;;;;;;0.50;0.50;;;-0.70;99.90;;;;;;5280575;27;20023;-74
2022/01/12 11:29:29;;;;;;;1.43;1.33;;;-0.90;99.90;;;;;;5262274;28;20031;-74
2022/01/12 11:32:12;;;;;;;0.80;0.80;;;-0.90;99.90;;;;;;5262148;28;20524;-75
2022/01/12 11:34:46;;;;;;;0.77;0.77;;;-0.80;99.90;;;;;;5261078;28;20058;-75
2022/01/12 11:37:19;;;;;;;1.03;1.03;;;-0.40;99.90;;;;;;5262550;28;20091;-74
2022/01/12 11:39:50;;;;;;;1.17;1.17;;;-0.60;99.90;;;;;;5276321;28;20273;-74
2022/01/12 11:42:21;;;;;;;1.48;1.38;;;-0.70;99.90;;;;;;5261314;28;20028;-75
2022/01/12 11:44:52;;;;;;;0.47;0.47;;;-0.40;99.90;;;;;;5262956;28;20392;-75
2022/01/12 11:47:31;;;;;;;0.73;0.73;;;-0.50;99.90;;;;;;5276046;28;20020;-75
2022/01/12 11:50:14;;;;;;;0.60;0.60;;;-0.70;99.90;;;;;;5261721;28;20036;-75
2022/01/12 11:52:45;;;;;;;1.85;1.67;;;-0.60;99.90;;;;;;5261749;28;20032;-74
2022/01/12 11:55:20;;;;;;;0.82;0.82;;;-0.50;99.90;;;;;;5263054;28;20032;-74
2022/01/12 11:57:59;;;;;;;1.50;1.50;;;-0.40;99.90;;;;;;5246905;28;20048;-75
2022/01/12 12:00:39;;;;;;;0.82;0.82;;;-0.40;99.90;;;;;;5248284;28;20201;-74
2022/01/12 12:03:18;;;;;;;0.50;0.50;;;-0.40;99.90;;;;;;5242697;28;20430;-74
2022/01/12 12:05:54;;;;;;;0.47;0.47;;;-0.40;99.90;;;;;;5267096;28;20126;-74
2022/01/12 12:08:25;;;;;;;2.20;2.10;;;-0.50;99.90;;;;;;5263823;28;20020;-74
2022/01/12 12:11:02;;;;;;;0.60;0.60;;;-0.50;99.90;;;;;;5244554;28;20067;-74
2022/01/12 12:13:35;;;;;;;0.77;0.77;;;-0.30;99.90;;;;;;5262737;28;20020;-73
2022/01/12 12:16:09;;;;;;;1.08;1.08;;;-0.40;99.90;;;;;;5261003;28;20028;-74
2022/01/12 12:18:40;;;;;;;0.77;0.77;;;-0.20;99.90;;;;;;5261518;28;20081;-73
2022/01/12 12:21:13;;;;;;;0.98;0.98;;;0.50;99.90;;;;;;5241361;28;20028;-73
2022/01/12 12:23:44;;;;;;;0.52;0.52;;;0.60;99.90;;;;;;5275930;28;20043;-73
2022/01/12 12:26:24;;;;;;;1.33;1.33;;;0.30;99.90;;;;;;5261227;28;20036;-73
2022/01/12 12:28:58;;;;;;;0.90;0.90;;;-0.20;99.90;;;;;;5260573;28;20024;-73
2022/01/12 12:31:30;;;;;;;;;;;-0.30;99.90;;;;;;5260640;28;20034;-74
2022/01/12 12:34:05;;;;;;;0.50;0.50;;;0.30;99.90;;;;;;5245614;28;19912;-74
2022/01/12 12:36:36;;;;;;;0.60;0.60;;;1.50;99.90;;;;;;5261504;28;20096;-73
2022/01/12 12:39:14;;;;;;;1.55;1.20;;;2.10;99.90;;;;;;5260706;28;20192;-74
2022/01/12 12:41:46;;;;;;;0.68;0.68;;;1.30;99.90;;;;;;5255904;28;20035;-74
2022/01/12 12:44:27;;;;;;;1.00;1.00;;;0.50;99.90;;;;;;5260674;28;20029;-73
2022/01/12 12:47:14;;;;;;;1.55;1.55;;;0.40;99.90;;;;;;5259183;28;20237;-73
2022/01/12 12:49:46;;;;;;;0.68;0.68;;;0.80;99.90;;;;;;5260442;28;20027;-74
2022/01/12 12:52:38;;;;;;;0.80;0.80;;;1.20;99.90;;;;;;5260107;28;20047;-73
2022/01/12 12:55:16;;;;;;;0.60;0.60;;;1.50;99.90;;;;;;5260819;28;20039;-73
2022/01/12 12:57:57;;;;;;;0.95;0.95;;;1.40;99.90;;;;;;5242630;28;20607;-73
2022/01/12 13:00:30;;;;;;;1.95;1.88;;;1.20;99.90;;;;;;5261616;28;20071;-73
2022/01/12 13:03:06;;;;;;;1.35;1.35;;;1.40;99.90;;;;;;5260052;28;20036;-72
2022/01/12 13:05:45;;;;;;;0.70;0.70;;;1.30;99.90;;;;;;5252966;28;20055;-73
2022/01/12 13:08:17;;;;;;;0.73;0.73;;;1.60;99.90;;;;;;5259171;28;20044;-73
2022/01/12 13:10:50;;;;;;;0.70;0.70;;;2.70;99.90;;;;;;5260497;28;20098;-73
2022/01/12 13:13:23;;;;;;;1.73;1.63;;;2.50;99.90;;;;;;5227420;28;20461;-73
2022/01/12 13:15:59;;;;;;;1.00;1.00;;;2.50;99.90;;;;;;5275809;28;20028;-72
2022/01/12 13:18:32;;;;;;;0.68;0.68;;;2.40;99.90;;;;;;5257792;28;20253;-72
2022/01/12 13:21:12;;;;;;;0.70;0.70;;;2.60;99.90;;;;;;5260211;28;20032;-72
2022/01/12 13:23:53;;;;;;;2.15;1.75;;;2.80;99.90;;;;;;5265402;28;20032;-72
2022/01/12 13:26:26;;;;;;;0.52;0.52;;;2.30;99.90;;;;;;5243546;28;20407;-73
2022/01/12 13:29:09;;;;;;;1.00;1.00;;;1.80;99.90;;;;;;5258831;28;20043;-71
2022/01/12 13:31:40;;;;;;;0.77;0.77;;;1.00;99.90;;;;;;5257730;28;20032;-72
2022/01/12 13:34:16;;;;;;;1.52;1.45;;;0.90;99.90;;;;;;5252394;28;20081;-72
2022/01/12 13:36:50;;;;;;;0.88;0.88;;;1.10;99.90;;;;;;5259986;28;20043;-73
2022/01/12 13:39:23;;;;;;;1.40;1.40;;;1.00;99.90;;;;;;5259146;28;20038;-73
2022/01/12 13:42:01;;;;;;;0.70;0.70;;;0.90;99.90;;;;;;5259695;28;20128;-73
2022/01/12 13:44:32;;;;;;;0.73;0.73;;;1.60;99.90;;;;;;5241856;28;20040;-73
2022/01/12 13:47:23;;;;;;;1.35;1.35;;;2.00;99.90;;;;;;5260119;28;20085;-73
2022/01/12 13:50:09;;;;;;;0.50;0.50;;;2.60;99.90;;;;;;5259610;28;20080;-73
2022/01/12 13:52:54;;;;;;;0.63;0.63;;;2.50;99.90;;;;;;5259406;28;20365;-74
2022/01/12 13:55:33;;;;;;;2.25;2.15;;;2.50;99.90;;;;;;5261195;28;20024;-74
2022/01/12 13:58:10;;;;;;;0.70;0.70;;;2.80;99.90;;;;;;5260208;28;20315;-75
2022/01/12 14:00:41;;;;;;;0.57;0.57;;;1.80;99.90;;;;;;5259714;28;20036;-73
2022/01/12 14:03:24;;;;;;;0.50;0.50;;;1.80;99.90;;;;;;5242869;28;20047;-74
2022/01/12 14:06:05;;;;;;;1.60;1.60;;;1.80;99.90;;;;;;5254416;28;20043;-73
2022/01/12 14:08:55;;;;;;;0.60;0.60;;;1.30;99.90;;;;;;5263853;28;20047;-73
2022/01/12 14:11:37;;;;;;;0.55;0.55;;;1.10;99.90;;;;;;5264057;28;20245;-73
2022/01/12 14:14:08;;;;;;;0.60;0.60;;;1.00;99.90;;;;;;5263591;28;20099;-73
2022/01/12 14:16:42;;;;;;;2.45;2.25;;;0.70;99.90;;;;;;5244861;28;20058;-73
2022/01/12 14:19:17;;;;;;;1.15;1.15;;;0.50;99.90;;;;;;5251203;28;20396;-73
2022/01/12 14:22:00;;;;;;;0.50;0.50;;;0.50;99.90;;;;;;5280870;28;20116;-74
2022/01/12 14:24:33;;;;;;;1.92;1.83;;;0.50;99.90;;;;;;5282052;28;20042;-74
2022/01/12 14:27:07;;;;;;;1.35;1.35;;;0.50;99.90;;;;;;5272852;28;20125;-73
2022/01/12 14:29:40;;;;;;;0.50;0.50;;;0.40;99.90;;;;;;5267446;28;20035;-73
2022/01/12 14:32:14;;;;;;;0.43;0.43;;;0.40;99.90;;;;;;5268093;28;20106;-73
2022/01/12 14:34:45;;;;;;;0.60;0.60;;;0.40;99.90;;;;;;5282386;27;20409;-73
2022/01/12 14:37:19;;;;;;;0.38;0.38;;;0.20;99.90;;;;;;5280554;28;20023;-73
2022/01/12 14:39:55;;;;;;;0.60;0.60;;;0.20;99.90;;;;;;5251218;28;20036;-73
2022/01/12 14:42:26;;;;;;;0.65;0.65;;;0.20;99.90;;;;;;5267860;28;20049;-73
2022/01/12 14:44:59;;;;;;;0.60;0.60;;;0.20;99.90;;;;;;5284791;28;20031;-73
2022/01/12 14:47:35;;;;;;;0.90;0.90;;;0.20;99.90;;;;;;5251039;28;20103;-73